createdAt,value
2022-08-26T04:00:32.304Z,61.09
2022-08-26T04:01:32.400Z,61.52
2022-08-26T04:02:32.294Z,61.91
2022-08-26T04:03:32.239Z,61.61
2022-08-26T04:04:32.226Z,62.41
2022-08-26T04:05:32.214Z,62.21
2022-08-26T04:06:32.213Z,62.61
2022-08-26T04:07:32.203Z,62.24
2022-08-26T04:08:32.182Z,62.24
2022-08-26T04:09:32.167Z,62.15
2022-08-26T04:10:32.161Z,62.34
2022-08-26T04:11:37.851Z,62.45
2022-08-26T04:12:32.162Z,62.84
2022-08-26T04:13:32.135Z,62.18
2022-08-26T04:14:32.113Z,62.27
2022-08-26T04:15:32.106Z,62.24
2022-08-26T04:16:32.134Z,62.77
2022-08-26T04:17:32.090Z,62.24
2022-08-26T04:18:33.198Z,63.44
2022-08-26T04:19:33.054Z,61.98
2022-08-26T04:20:32.053Z,62.64
2022-08-26T04:21:32.033Z,62.77
2022-08-26T04:22:37.045Z,62.67
2022-08-26T04:23:32.026Z,62.54
2022-08-26T04:24:33.001Z,62.45
2022-08-26T04:25:31.989Z,62.54
2022-08-26T04:26:31.985Z,62.64
2022-08-26T04:27:31.966Z,62.57
2022-08-26T04:28:31.978Z,62.87
2022-08-26T04:29:31.943Z,62.67
2022-08-26T04:30:31.946Z,62.97
2022-08-26T04:31:31.950Z,62.67
2022-08-26T04:32:31.912Z,63.07
2022-08-26T04:33:36.934Z,62.97
2022-08-26T04:34:31.907Z,63.47
2022-08-26T04:35:31.878Z,63.37
2022-08-26T04:36:31.869Z,62.87
2022-08-26T04:37:31.856Z,62.77
2022-08-26T04:38:31.857Z,63.27
2022-08-26T04:39:31.836Z,62.87
2022-08-26T04:40:31.898Z,63.37
2022-08-26T04:41:31.817Z,62.87
2022-08-26T04:42:31.811Z,62.48
2022-08-26T04:43:31.799Z,62.48
2022-08-26T04:44:36.801Z,62.67
2022-08-26T04:45:31.765Z,62.67
2022-08-26T04:46:31.801Z,62.27
2022-08-26T04:47:32.465Z,62.77
2022-08-26T04:48:31.751Z,62.57
2022-08-26T04:49:35.490Z,62.84
2022-08-26T04:50:31.710Z,62.64
2022-08-26T04:51:31.698Z,62.54
2022-08-26T04:52:31.692Z,62.24
2022-08-26T04:53:31.686Z,62.24
2022-08-26T04:54:31.666Z,62.15
2022-08-26T04:55:39.833Z,62.15
2022-08-26T04:56:32.648Z,61.65
2022-08-26T04:57:31.633Z,62.24
2022-08-26T04:58:31.640Z,62.34
2022-08-26T04:59:33.261Z,62.24
2022-08-26T05:00:31.599Z,62.45
2022-08-26T05:01:31.704Z,62.04
2022-08-26T05:02:31.578Z,62.24
2022-08-26T05:03:31.579Z,62.34
2022-08-26T05:04:31.564Z,62.04
2022-08-26T05:05:31.553Z,62.64
2022-08-26T05:06:37.145Z,62.15
2022-08-26T05:07:31.521Z,62.74
2022-08-26T05:08:31.524Z,62.45
2022-08-26T05:09:31.533Z,62.15
2022-08-26T05:10:31.500Z,62.24
2022-08-26T05:11:31.486Z,62.64
2022-08-26T05:12:31.490Z,62.64
2022-08-26T05:13:31.465Z,62.24
2022-08-26T05:14:31.451Z,62.54
2022-08-26T05:15:31.439Z,62.15
2022-08-26T05:16:31.423Z,62.15
2022-08-26T05:17:36.442Z,62.54
2022-08-26T05:18:31.410Z,62.45
2022-08-26T05:19:31.387Z,62.54
2022-08-26T05:20:31.378Z,62.41
2022-08-26T05:21:31.368Z,62.04
2022-08-26T05:22:31.358Z,62.21
2022-08-26T05:23:31.362Z,62.21
2022-08-26T05:24:31.334Z,61.71
2022-08-26T05:25:31.363Z,61.71
2022-08-26T05:26:31.338Z,62.01
2022-08-26T05:27:31.307Z,61.52
2022-08-26T05:28:36.330Z,62.01
2022-08-26T05:29:31.277Z,61.71
2022-08-26T05:30:31.280Z,61.61
2022-08-26T05:31:31.370Z,61.61
2022-08-26T05:32:31.250Z,61.52
2022-08-26T05:33:31.245Z,61.82
2022-08-26T05:34:31.227Z,61.65
2022-08-26T05:35:31.211Z,61.94
2022-08-26T05:36:31.201Z,61.94
2022-08-26T05:37:31.227Z,62.45
2022-08-26T05:38:31.191Z,62.45
2022-08-26T05:39:36.188Z,62.45
2022-08-26T05:40:31.239Z,62.54
2022-08-26T05:41:34.332Z,62.45
2022-08-26T05:42:32.135Z,62.24
2022-08-26T05:43:31.142Z,62.54
2022-08-26T05:44:33.273Z,62.54
2022-08-26T05:45:32.113Z,62.34
2022-08-26T05:46:31.196Z,62.84
2022-08-26T05:47:31.077Z,62.15
2022-08-26T05:48:31.071Z,62.45
2022-08-26T05:49:31.083Z,62.24
2022-08-26T05:50:36.073Z,62.45
2022-08-26T05:51:31.136Z,62.15
2022-08-26T05:52:31.023Z,62.24
2022-08-26T05:53:31.012Z,62.45
2022-08-26T05:54:31.013Z,61.85
2022-08-26T05:55:30.991Z,61.52
2022-08-26T05:56:31.022Z,61.91
2022-08-26T05:57:30.998Z,62.12
2022-08-26T05:58:30.959Z,61.52
2022-08-26T05:59:30.961Z,61.61
2022-08-26T06:00:30.935Z,62.01
2022-08-26T06:01:36.094Z,62.21
2022-08-26T06:02:30.940Z,61.85
2022-08-26T06:03:30.902Z,62.04
2022-08-26T06:04:30.918Z,62.01
2022-08-26T06:05:33.326Z,62.12
2022-08-26T06:06:31.889Z,61.52
2022-08-26T06:07:30.873Z,62.04
2022-08-26T06:08:30.857Z,61.94
2022-08-26T06:09:30.849Z,61.35
2022-08-26T06:10:32.956Z,62.15
2022-08-26T06:11:30.810Z,62.45
2022-08-26T06:12:35.827Z,62.54
2022-08-26T06:13:32.066Z,61.65
2022-08-26T06:14:30.812Z,62.24
2022-08-26T06:15:30.912Z,61.94
2022-08-26T06:16:30.761Z,62.04
2022-08-26T06:17:30.743Z,62.01
2022-08-26T06:18:30.740Z,61.85
2022-08-26T06:19:32.975Z,61.91
2022-08-26T06:20:30.751Z,61.71
2022-08-26T06:21:30.705Z,61.41
2022-08-26T06:22:30.750Z,60.52
2022-08-26T06:23:35.701Z,60.72
2022-08-26T06:24:30.687Z,60.72
2022-08-26T06:25:30.656Z,61.11
2022-08-26T06:26:30.661Z,60.72
2022-08-26T06:27:32.858Z,60.72
2022-08-26T06:28:30.628Z,59.99
2022-08-26T06:29:30.645Z,59.56
2022-08-26T06:30:30.621Z,58.34
2022-08-26T06:31:30.625Z,58.51
2022-08-26T06:32:30.584Z,58.54
2022-08-26T06:33:30.575Z,57.84
2022-08-26T06:34:35.607Z,59.23
2022-08-26T06:35:30.551Z,58.47
2022-08-26T06:36:30.541Z,59.27
2022-08-26T06:37:30.538Z,59.23
2022-08-26T06:38:30.514Z,58.94
2022-08-26T06:39:30.771Z,59.14
2022-08-26T06:40:30.613Z,58.57
2022-08-26T06:41:30.484Z,58.57
2022-08-26T06:42:30.475Z,58.57
2022-08-26T06:43:30.467Z,59.47
2022-08-26T06:44:30.464Z,58.67
2022-08-26T06:45:35.491Z,59.36
2022-08-26T06:46:30.490Z,59.47
2022-08-26T06:47:30.420Z,59.27
2022-08-26T06:48:30.416Z,59.47
2022-08-26T06:49:30.435Z,59.56
2022-08-26T06:50:30.387Z,59.06
2022-08-26T06:51:30.378Z,58.54
2022-08-26T06:52:30.361Z,58.41
2022-08-26T06:53:30.345Z,59.34
2022-08-26T06:54:30.433Z,58.44
2022-08-26T06:55:30.377Z,58.91
2022-08-26T06:56:35.335Z,59.70
2022-08-26T06:57:30.300Z,58.61
2022-08-26T06:58:30.296Z,58.51
2022-08-26T06:59:30.278Z,58.54
2022-08-26T07:00:30.332Z,58.22
2022-08-26T07:01:30.323Z,59.31
2022-08-26T07:02:30.292Z,58.91
2022-08-26T07:03:30.274Z,58.44
2022-08-26T07:04:30.221Z,58.54
2022-08-26T07:05:30.227Z,58.51
2022-08-26T07:06:30.212Z,59.11
2022-08-26T07:07:35.212Z,58.74
2022-08-26T07:08:30.188Z,58.64
2022-08-26T07:09:30.174Z,59.44
2022-08-26T07:10:30.624Z,59.23
2022-08-26T07:11:30.168Z,59.14
2022-08-26T07:12:30.163Z,58.71
2022-08-26T07:13:30.738Z,59.01
2022-08-26T07:14:30.132Z,58.78
2022-08-26T07:15:31.198Z,58.28
2022-08-26T07:16:30.084Z,57.79
2022-08-26T07:17:30.088Z,58.28
2022-08-26T07:18:35.094Z,58.11
2022-08-26T07:19:31.809Z,58.81
2022-08-26T07:20:30.058Z,57.82
2022-08-26T07:21:30.032Z,58.01
2022-08-26T07:22:30.036Z,58.09
2022-08-26T07:23:30.010Z,58.09
2022-08-26T07:24:30.007Z,58.09
2022-08-26T07:25:29.984Z,58.09
2022-08-26T07:26:29.974Z,57.99
2022-08-26T07:27:29.958Z,58.22
2022-08-26T07:28:29.948Z,58.48
2022-08-26T07:29:34.977Z,58.01
2022-08-26T07:30:29.931Z,58.01
2022-08-26T07:31:32.508Z,57.82
2022-08-26T07:32:29.909Z,57.89
2022-08-26T07:33:29.898Z,57.42
2022-08-26T07:34:29.911Z,57.59
2022-08-26T07:35:29.871Z,57.99
2022-08-26T07:36:29.865Z,58.09
2022-08-26T07:37:30.561Z,57.29
2022-08-26T07:38:30.831Z,57.89
2022-08-26T07:39:31.417Z,57.06
2022-08-26T07:40:34.915Z,57.46
2022-08-26T07:42:29.793Z,56.70
2022-08-26T07:43:29.799Z,56.57
2022-08-26T07:44:29.804Z,57.29
2022-08-26T07:45:29.780Z,56.99
2022-08-26T07:46:30.512Z,57.09
2022-08-26T07:47:29.736Z,57.39
2022-08-26T07:48:29.720Z,57.39
2022-08-26T07:49:29.788Z,57.29
2022-08-26T07:50:48.903Z,57.26
2022-08-26T07:51:35.715Z,57.26
2022-08-26T07:52:29.776Z,56.67
2022-08-26T07:53:29.675Z,56.47
2022-08-26T07:54:29.691Z,56.47
2022-08-26T07:55:29.648Z,57.46
2022-08-26T07:56:29.630Z,57.46
2022-08-26T07:57:29.625Z,57.66
2022-08-26T07:58:29.613Z,57.06
2022-08-26T07:59:29.620Z,57.46
2022-08-26T08:00:29.630Z,57.06
2022-08-26T08:01:30.797Z,56.96
2022-08-26T08:02:34.591Z,57.36
2022-08-26T08:03:29.554Z,56.96
2022-08-26T08:04:29.544Z,57.36
2022-08-26T08:05:33.238Z,57.43
2022-08-26T08:06:29.526Z,56.57
2022-08-26T08:07:44.656Z,57.24
2022-08-26T08:08:30.505Z,56.54
2022-08-26T08:09:29.490Z,57.36
2022-08-26T08:10:29.505Z,57.56
2022-08-26T08:11:29.467Z,57.56
2022-08-26T08:12:29.453Z,58.26
2022-08-26T08:13:34.463Z,57.86
2022-08-26T08:14:29.427Z,57.56
2022-08-26T08:15:29.438Z,57.36
2022-08-26T08:16:32.276Z,57.56
2022-08-26T08:17:29.411Z,58.26
2022-08-26T08:18:29.386Z,58.06
2022-08-26T08:19:36.860Z,58.26
2022-08-26T08:20:30.380Z,57.96
2022-08-26T08:21:29.352Z,57.56
2022-08-26T08:22:29.344Z,58.23
2022-08-26T08:23:29.336Z,57.24
2022-08-26T08:24:34.362Z,57.43
2022-08-26T08:25:29.306Z,56.54
2022-08-26T08:26:29.305Z,56.44
2022-08-26T08:27:29.286Z,56.64
2022-08-26T08:28:29.273Z,56.61
2022-08-26T08:29:29.261Z,56.02
2022-08-26T08:30:29.273Z,56.02
2022-08-26T08:31:55.849Z,56.02
2022-08-26T08:32:30.234Z,56.61
2022-08-26T08:33:29.221Z,56.41
2022-08-26T08:34:29.281Z,56.32
2022-08-26T08:35:34.234Z,56.09
2022-08-26T08:36:30.548Z,56.09
2022-08-26T08:37:30.196Z,55.49
2022-08-26T08:38:29.160Z,55.29
2022-08-26T08:39:29.153Z,55.66
2022-08-26T08:40:29.400Z,55.57
2022-08-26T08:41:29.127Z,55.57
2022-08-26T08:42:29.123Z,55.27
2022-08-26T08:43:29.110Z,55.07
2022-08-26T08:44:29.126Z,55.57
2022-08-26T08:45:30.459Z,54.75
2022-08-26T08:46:34.150Z,54.77
2022-08-26T08:47:29.061Z,55.27
2022-08-26T08:48:29.072Z,55.57
2022-08-26T08:49:29.220Z,54.97
2022-08-26T08:50:29.075Z,54.77
2022-08-26T08:51:29.027Z,55.17
2022-08-26T08:52:29.004Z,55.29
2022-08-26T08:53:29.018Z,55.87
2022-08-26T08:54:29.013Z,55.87
2022-08-26T08:55:28.983Z,54.77
2022-08-26T08:56:28.961Z,55.07
2022-08-26T08:57:33.973Z,55.07
2022-08-26T08:58:28.958Z,55.57
2022-08-26T08:59:28.928Z,55.66
2022-08-26T09:00:30.411Z,55.44
2022-08-26T09:01:29.036Z,55.44
2022-08-26T09:02:28.952Z,55.44
2022-08-26T09:03:28.905Z,55.15
2022-08-26T09:04:28.879Z,55.44
2022-08-26T09:05:28.888Z,55.15
2022-08-26T09:06:28.850Z,55.24
2022-08-26T09:07:29.810Z,54.64
2022-08-26T09:08:33.862Z,54.55
2022-08-26T09:09:28.821Z,54.45
2022-08-26T09:10:28.830Z,54.45
2022-08-26T09:11:28.795Z,54.85
2022-08-26T09:12:29.477Z,55.02
2022-08-26T09:13:28.774Z,54.82
2022-08-26T09:14:28.775Z,54.94
2022-08-26T09:15:30.588Z,55.64
2022-08-26T09:16:28.801Z,55.04
2022-08-26T09:17:28.728Z,54.94
2022-08-26T09:18:28.721Z,55.04
2022-08-26T09:19:33.744Z,55.24
2022-08-26T09:20:28.822Z,55.24
2022-08-26T09:21:28.726Z,55.74
2022-08-26T09:22:28.694Z,55.74
2022-08-26T09:23:28.679Z,55.24
2022-08-26T09:24:28.939Z,55.54
2022-08-26T09:25:28.637Z,55.44
2022-08-26T09:26:30.613Z,55.54
2022-08-26T09:27:28.644Z,56.13
2022-08-26T09:28:28.619Z,56.13
2022-08-26T09:29:28.595Z,55.54
2022-08-26T09:30:33.727Z,55.83
2022-08-26T09:31:28.707Z,55.83
2022-08-26T09:32:28.608Z,55.34
2022-08-26T09:33:28.549Z,55.44
2022-08-26T09:34:28.536Z,55.41
2022-08-26T09:35:28.526Z,55.11
2022-08-26T09:36:28.533Z,55.58
2022-08-26T09:37:28.561Z,54.60
2022-08-26T09:38:28.495Z,55.19
2022-08-26T09:39:28.483Z,54.99
2022-08-26T09:40:28.512Z,55.09
2022-08-26T09:41:33.502Z,55.58
2022-08-26T09:42:28.463Z,55.19
2022-08-26T09:43:28.437Z,54.69
2022-08-26T09:44:28.443Z,54.39
2022-08-26T09:45:28.427Z,54.69
2022-08-26T09:46:29.108Z,55.19
2022-08-26T09:47:28.462Z,55.09
2022-08-26T09:48:28.379Z,54.79
2022-08-26T09:49:29.900Z,54.39
2022-08-26T09:50:28.796Z,54.99
2022-08-26T09:51:28.387Z,54.79
2022-08-26T09:52:33.402Z,54.79
2022-08-26T09:53:30.400Z,54.20
2022-08-26T09:54:30.471Z,54.69
2022-08-26T09:55:28.305Z,55.19
2022-08-26T09:56:28.310Z,54.57
2022-08-26T09:57:28.298Z,54.60
2022-08-26T09:58:28.302Z,54.79
2022-08-26T09:59:28.285Z,54.60
2022-08-26T10:00:28.247Z,54.57
2022-08-26T10:01:30.123Z,54.39
2022-08-26T10:02:28.235Z,54.49
2022-08-26T10:03:33.242Z,54.57
2022-08-26T10:04:28.362Z,54.57
2022-08-26T10:05:28.233Z,54.57
2022-08-26T10:06:28.192Z,54.37
2022-08-26T10:07:28.172Z,54.67
2022-08-26T10:08:28.162Z,54.27
2022-08-26T10:09:28.204Z,54.77
2022-08-26T10:10:28.146Z,54.37
2022-08-26T10:11:28.161Z,54.07
2022-08-26T10:12:28.125Z,54.24
2022-08-26T10:13:29.558Z,54.24
2022-08-26T10:14:33.191Z,53.23
2022-08-26T10:15:28.092Z,53.33
2022-08-26T10:16:28.536Z,53.53
2022-08-26T10:17:28.063Z,53.70
2022-08-26T10:18:32.083Z,53.20
2022-08-26T10:19:29.109Z,53.40
2022-08-26T10:20:29.072Z,52.81
2022-08-26T10:21:28.034Z,53.33
2022-08-26T10:22:28.007Z,53.42
2022-08-26T10:23:28.072Z,53.53
2022-08-26T10:24:27.994Z,53.63
2022-08-26T10:25:33.000Z,53.20
2022-08-26T10:26:41.732Z,53.40
2022-08-26T10:27:27.993Z,53.30
2022-08-26T10:28:27.935Z,53.11
2022-08-26T10:29:27.934Z,52.41
2022-08-26T10:30:27.930Z,52.69
2022-08-26T10:31:28.379Z,52.39
2022-08-26T10:32:27.970Z,52.36
2022-08-26T10:33:27.955Z,52.36
2022-08-26T10:34:27.867Z,52.46
2022-08-26T10:35:27.858Z,51.77
2022-08-26T10:36:39.379Z,51.54
2022-08-26T10:37:28.866Z,51.45
2022-08-26T10:38:28.667Z,50.54
2022-08-26T10:39:27.813Z,50.04
2022-08-26T10:40:27.866Z,50.34
2022-08-26T10:41:27.817Z,49.94
2022-08-26T10:42:28.820Z,50.12
2022-08-26T10:43:27.785Z,49.43
2022-08-26T10:44:27.770Z,50.34
2022-08-26T10:45:27.807Z,50.43
2022-08-26T10:46:27.787Z,50.24
2022-08-26T10:47:32.746Z,50.24
2022-08-26T10:48:27.717Z,50.24
2022-08-26T10:49:28.748Z,50.14
2022-08-26T10:50:27.689Z,49.74
2022-08-26T10:51:27.695Z,50.04
2022-08-26T10:52:29.342Z,49.45
2022-08-26T10:53:27.659Z,49.84
2022-08-26T10:54:27.646Z,50.14
2022-08-26T10:55:27.646Z,50.21
2022-08-26T10:56:27.642Z,49.52
2022-08-26T10:57:27.616Z,49.90
2022-08-26T10:58:32.626Z,49.01
2022-08-26T10:59:29.420Z,48.39
2022-08-26T11:00:27.721Z,48.17
2022-08-26T11:01:27.658Z,47.48
2022-08-26T11:02:27.557Z,47.48
2022-08-26T11:03:27.549Z,47.80
2022-08-26T11:04:27.615Z,48.00
2022-08-26T11:05:27.533Z,47.41
2022-08-26T11:06:27.540Z,47.70
2022-08-26T11:07:27.504Z,47.21
2022-08-26T11:08:27.493Z,46.84
2022-08-26T11:09:28.803Z,47.11
2022-08-26T11:10:27.469Z,47.80
2022-08-26T11:11:32.496Z,47.21
2022-08-26T11:12:27.471Z,47.60
2022-08-26T11:13:27.464Z,48.00
2022-08-26T11:14:29.190Z,47.70
2022-08-26T11:15:27.416Z,47.80
2022-08-26T11:16:27.529Z,47.80
2022-08-26T11:17:27.395Z,47.21
2022-08-26T11:18:27.383Z,47.70
2022-08-26T11:19:39.930Z,47.38
2022-08-26T11:20:28.363Z,47.38
2022-08-26T11:21:27.351Z,46.79
2022-08-26T11:22:27.357Z,46.91
2022-08-26T11:23:27.331Z,46.00
2022-08-26T11:24:32.340Z,46.00
2022-08-26T11:25:30.821Z,46.10
2022-08-26T11:26:43.135Z,46.28
2022-08-26T11:27:28.297Z,46.50
2022-08-26T11:28:27.281Z,45.98
2022-08-26T11:29:27.267Z,46.50
2022-08-26T11:30:27.259Z,46.40
2022-08-26T11:31:27.314Z,46.08
2022-08-26T11:32:27.242Z,46.28
2022-08-26T11:33:27.250Z,45.49
2022-08-26T11:34:27.208Z,45.17
2022-08-26T11:35:27.229Z,45.05
2022-08-26T11:36:27.185Z,44.66
2022-08-26T11:37:32.396Z,44.85
2022-08-26T11:38:27.184Z,44.95
2022-08-26T11:39:27.176Z,44.85
2022-08-26T11:40:27.200Z,45.05
2022-08-26T11:41:27.144Z,44.07
2022-08-26T11:42:27.627Z,44.46
2022-08-26T11:43:29.768Z,44.46
2022-08-26T11:44:27.096Z,44.26
2022-08-26T11:45:27.172Z,44.17
2022-08-26T11:46:27.076Z,44.07
2022-08-26T11:47:27.075Z,43.97
2022-08-26T11:48:27.054Z,44.15
2022-08-26T11:49:27.050Z,43.95
2022-08-26T11:50:32.056Z,43.85
2022-08-26T11:51:27.042Z,43.68
2022-08-26T11:52:27.048Z,44.54
2022-08-26T11:53:26.996Z,43.75
2022-08-26T11:54:26.992Z,43.06
2022-08-26T11:55:27.974Z,42.77
2022-08-26T11:56:26.966Z,43.26
2022-08-26T11:57:26.966Z,43.26
2022-08-26T11:58:26.947Z,43.36
2022-08-26T11:59:26.980Z,43.75
2022-08-26T12:00:26.926Z,43.36
2022-08-26T12:01:26.910Z,43.14
2022-08-26T12:02:26.917Z,42.45
2022-08-26T12:03:32.047Z,41.74
2022-08-26T12:04:27.007Z,41.71
2022-08-26T12:05:26.932Z,41.09
2022-08-26T12:07:26.844Z,40.06
2022-08-26T12:08:27.928Z,39.62
2022-08-26T12:09:26.822Z,39.41
2022-08-26T12:10:29.545Z,38.87
2022-08-26T12:11:26.800Z,38.10
2022-08-26T12:12:26.792Z,38.53
2022-08-26T12:13:26.793Z,39.64
2022-08-26T12:14:27.321Z,38.14
2022-08-26T12:15:26.758Z,38.38
2022-08-26T12:16:31.853Z,36.96
2022-08-26T12:17:26.768Z,37.23
2022-08-26T12:18:29.698Z,36.49
2022-08-26T12:19:27.337Z,35.31
2022-08-26T12:20:26.708Z,34.50
2022-08-26T12:21:26.697Z,34.50
2022-08-26T12:22:26.688Z,34.59
2022-08-26T12:23:26.705Z,34.48
2022-08-26T12:24:26.667Z,34.19
2022-08-26T12:25:26.656Z,33.88
2022-08-26T12:26:26.644Z,34.09
2022-08-26T12:27:26.656Z,34.28
2022-08-26T12:28:26.651Z,33.38
2022-08-26T12:29:31.636Z,33.65
2022-08-26T12:30:26.602Z,33.67
2022-08-26T12:31:26.617Z,33.56
2022-08-26T12:32:26.588Z,33.25
2022-08-26T12:33:26.585Z,33.36
2022-08-26T12:34:26.581Z,32.78
2022-08-26T12:35:26.551Z,35.10
2022-08-26T12:36:26.549Z,36.14
2022-08-26T12:37:26.529Z,36.82
2022-08-26T12:38:26.532Z,37.43
2022-08-26T12:39:26.508Z,36.80
2022-08-26T12:40:31.608Z,36.30
2022-08-26T12:41:26.490Z,35.81
2022-08-26T12:42:26.478Z,35.31
2022-08-26T12:43:26.486Z,35.31
2022-08-26T12:44:26.459Z,34.82
2022-08-26T12:45:26.500Z,36.00
2022-08-26T12:46:26.456Z,35.91
2022-08-26T12:47:41.773Z,36.18
2022-08-26T12:48:27.428Z,35.80
2022-08-26T12:49:26.405Z,35.50
2022-08-26T12:50:26.401Z,36.08
2022-08-26T12:51:31.413Z,36.30
2022-08-26T12:52:26.553Z,37.33
2022-08-26T12:53:26.362Z,38.35
2022-08-26T12:54:26.376Z,38.20
2022-08-26T12:55:26.365Z,39.39
2022-08-26T12:56:26.334Z,39.02
2022-08-26T12:57:26.326Z,39.84
2022-08-26T12:58:26.313Z,40.55
2022-08-26T12:59:26.322Z,41.35
2022-08-26T13:00:28.494Z,41.64
2022-08-26T13:01:26.379Z,41.25
2022-08-26T13:02:31.299Z,41.15
2022-08-26T13:03:26.279Z,41.56
2022-08-26T13:04:26.288Z,41.47
2022-08-26T13:05:26.236Z,41.17
2022-08-26T13:06:26.234Z,41.66
2022-08-26T13:07:26.216Z,41.27
2022-08-26T13:08:26.205Z,41.76
2022-08-26T13:09:26.205Z,41.66
2022-08-26T13:10:30.931Z,41.96
2022-08-26T13:11:26.173Z,42.25
2022-08-26T13:12:26.162Z,41.37
2022-08-26T13:13:26.158Z,42.55
2022-08-26T13:14:26.155Z,42.74
2022-08-26T13:15:31.162Z,42.08
2022-08-26T13:16:26.246Z,42.08
2022-08-26T13:17:26.151Z,42.35
2022-08-26T13:18:26.098Z,42.76
2022-08-26T13:19:26.098Z,42.47
2022-08-26T13:20:26.093Z,42.37
2022-08-26T13:21:26.081Z,42.76
2022-08-26T13:22:26.056Z,42.37
2022-08-26T13:23:26.046Z,42.18
2022-08-26T13:24:26.055Z,42.37
2022-08-26T13:25:26.024Z,42.27
2022-08-26T13:26:26.013Z,41.98
2022-08-26T13:27:25.999Z,42.27
2022-08-26T13:28:31.174Z,41.98
2022-08-26T13:29:26.009Z,41.49
2022-08-26T13:30:25.994Z,42.27
2022-08-26T13:31:27.041Z,42.08
2022-08-26T13:32:27.583Z,41.68
2022-08-26T13:33:25.933Z,41.88
2022-08-26T13:34:25.937Z,42.49
2022-08-26T13:35:25.912Z,42.39
2022-08-26T13:36:25.905Z,42.88
2022-08-26T13:37:34.720Z,42.98
2022-08-26T13:38:33.117Z,42.88
2022-08-26T13:39:26.883Z,42.39
2022-08-26T13:40:25.925Z,41.51
2022-08-26T13:41:30.869Z,42.10
2022-08-26T13:42:25.861Z,42.18
2022-08-26T13:43:25.850Z,40.90
2022-08-26T13:44:25.835Z,41.49
2022-08-26T13:45:25.804Z,41.09
2022-08-26T13:46:25.901Z,41.29
2022-08-26T13:47:25.946Z,40.98
2022-08-26T13:48:25.773Z,41.09
2022-08-26T13:49:25.774Z,40.48
2022-08-26T13:50:25.810Z,40.31
2022-08-26T13:51:25.796Z,40.19
2022-08-26T13:52:30.805Z,40.00
2022-08-26T13:53:26.715Z,40.00
2022-08-26T13:54:30.897Z,40.68
2022-08-26T13:55:25.716Z,39.90
2022-08-26T13:56:25.712Z,40.09
2022-08-26T13:57:25.673Z,40.29
2022-08-26T13:58:25.664Z,39.98
2022-08-26T13:59:25.662Z,39.19
2022-08-26T14:00:25.668Z,39.69
2022-08-26T14:01:25.645Z,40.29
2022-08-26T14:02:25.623Z,40.29
2022-08-26T14:03:25.708Z,40.29
2022-08-26T14:04:27.102Z,40.78
2022-08-26T14:05:25.587Z,39.90
2022-08-26T14:06:25.575Z,40.00
2022-08-26T14:07:30.588Z,40.41
2022-08-26T14:08:25.577Z,40.51
2022-08-26T14:09:25.578Z,40.70
2022-08-26T14:10:25.538Z,40.70
2022-08-26T14:11:25.520Z,39.92
2022-08-26T14:12:25.514Z,40.11
2022-08-26T14:13:25.500Z,40.41
2022-08-26T14:14:25.499Z,40.11
2022-08-26T14:15:25.477Z,41.19
2022-08-26T14:16:25.569Z,40.41
2022-08-26T14:17:25.456Z,40.62
2022-08-26T14:18:25.445Z,40.31
2022-08-26T14:19:25.458Z,40.92
2022-08-26T14:20:30.449Z,40.53
2022-08-26T14:21:25.433Z,41.31
2022-08-26T14:22:25.429Z,40.92
2022-08-26T14:23:25.774Z,40.82
2022-08-26T14:24:25.421Z,41.02
2022-08-26T14:25:25.390Z,40.21
2022-08-26T14:26:28.335Z,40.41
2022-08-26T14:27:25.346Z,39.82
2022-08-26T14:29:25.331Z,40.11
2022-08-26T14:30:25.336Z,40.21
2022-08-26T14:31:25.351Z,41.09
2022-08-26T14:32:25.290Z,40.61
2022-08-26T14:33:30.306Z,40.70
2022-08-26T14:34:25.301Z,40.51
2022-08-26T14:35:25.308Z,40.61
2022-08-26T14:36:25.341Z,41.71
2022-08-26T14:37:25.241Z,41.11
2022-08-26T14:38:25.235Z,41.11
2022-08-26T14:39:25.235Z,41.31
2022-08-26T14:40:25.342Z,40.82
2022-08-26T14:41:25.206Z,40.92
2022-08-26T14:42:25.185Z,41.11
2022-08-26T14:43:25.173Z,40.62
2022-08-26T14:44:25.163Z,41.11
2022-08-26T14:45:25.167Z,40.82
2022-08-26T14:46:30.327Z,42.02
2022-08-26T14:47:25.176Z,41.21
2022-08-26T14:48:25.149Z,41.80
2022-08-26T14:49:25.115Z,41.33
2022-08-26T14:50:25.110Z,41.24
2022-08-26T14:51:25.098Z,41.72
2022-08-26T14:52:25.078Z,40.94
2022-08-26T14:53:25.063Z,41.53
2022-08-26T14:54:25.059Z,41.14
2022-08-26T14:55:25.052Z,41.24
2022-08-26T14:56:25.033Z,41.24
2022-08-26T14:57:25.018Z,40.92
2022-08-26T14:58:25.021Z,40.53
2022-08-26T14:59:30.041Z,40.64
2022-08-26T15:00:25.029Z,40.72
2022-08-26T15:01:28.030Z,40.72
2022-08-26T15:02:32.562Z,41.61
2022-08-26T15:03:25.954Z,40.72
2022-08-26T15:04:24.959Z,41.51
2022-08-26T15:05:24.946Z,40.70
2022-08-26T15:06:24.921Z,40.53
2022-08-26T15:07:24.909Z,40.72
2022-08-26T15:08:24.908Z,40.23
2022-08-26T15:09:24.888Z,40.72
2022-08-26T15:10:24.919Z,40.72
2022-08-26T15:11:24.901Z,41.14
2022-08-26T15:12:29.878Z,41.63
2022-08-26T15:13:24.865Z,42.41
2022-08-26T15:14:26.014Z,42.61
2022-08-26T15:15:24.843Z,42.71
2022-08-26T15:16:24.914Z,42.82
2022-08-26T15:17:24.804Z,42.72
2022-08-26T15:18:24.791Z,42.33
2022-08-26T15:19:24.778Z,43.41
2022-08-26T15:20:24.835Z,43.53
2022-08-26T15:21:24.762Z,43.14
2022-08-26T15:22:24.751Z,43.24
2022-08-26T15:23:24.745Z,43.43
2022-08-26T15:24:24.736Z,43.14
2022-08-26T15:25:29.756Z,43.14
2022-08-26T15:26:24.935Z,43.24
2022-08-26T15:27:24.723Z,43.24
2022-08-26T15:28:24.687Z,43.75
2022-08-26T15:29:24.673Z,43.06
2022-08-26T15:30:24.659Z,43.36
2022-08-26T15:31:24.749Z,43.77
2022-08-26T15:32:24.647Z,43.68
2022-08-26T15:33:24.627Z,44.46
2022-08-26T15:34:24.616Z,44.17
2022-08-26T15:35:24.603Z,44.56
2022-08-26T15:36:24.604Z,44.26
2022-08-26T15:37:24.583Z,44.66
2022-08-26T15:38:29.594Z,44.88
2022-08-26T15:39:24.605Z,45.56
2022-08-26T15:40:24.677Z,44.98
2022-08-26T15:41:24.551Z,44.80
2022-08-26T15:42:24.527Z,45.59
2022-08-26T15:43:28.979Z,45.37
2022-08-26T15:44:24.525Z,45.39
2022-08-26T15:45:25.842Z,45.49
2022-08-26T15:46:24.565Z,45.37
2022-08-26T15:47:24.471Z,46.67
2022-08-26T15:48:24.478Z,46.57
2022-08-26T15:49:24.480Z,48.05
2022-08-26T15:50:24.466Z,47.95
2022-08-26T15:51:29.462Z,47.95
2022-08-26T15:52:24.455Z,47.75
2022-08-26T15:53:24.436Z,48.05
2022-08-26T15:54:24.398Z,47.95
2022-08-26T15:55:24.385Z,48.25
2022-08-26T15:56:24.395Z,48.64
2022-08-26T15:57:24.362Z,48.96
2022-08-26T15:58:24.366Z,49.35
2022-08-26T15:59:24.341Z,50.14
2022-08-26T16:00:24.330Z,49.55
2022-08-26T16:01:27.556Z,49.97
2022-08-26T16:02:24.513Z,50.34
2022-08-26T16:03:24.295Z,50.44
2022-08-26T16:04:29.318Z,50.66
2022-08-26T16:05:24.348Z,50.46
2022-08-26T16:06:24.301Z,50.24
2022-08-26T16:07:24.262Z,49.57
2022-08-26T16:08:24.244Z,49.77
2022-08-26T16:09:24.567Z,50.16
2022-08-26T16:10:24.222Z,51.15
2022-08-26T16:11:25.680Z,50.66
2022-08-26T16:12:24.199Z,51.57
2022-08-26T16:13:24.187Z,51.67
2022-08-26T16:14:24.174Z,51.47
2022-08-26T16:15:24.201Z,52.75
2022-08-26T16:16:24.544Z,52.95
2022-08-26T16:17:29.165Z,53.34
2022-08-26T16:18:24.192Z,53.27
2022-08-26T16:19:24.777Z,53.77
2022-08-26T16:20:24.225Z,53.96
2022-08-26T16:21:24.111Z,54.09
2022-08-26T16:22:24.088Z,54.09
2022-08-26T16:23:24.078Z,54.48
2022-08-26T16:24:29.746Z,53.50
2022-08-26T16:25:25.055Z,54.38
2022-08-26T16:26:24.058Z,54.48
2022-08-26T16:27:24.050Z,54.28
2022-08-26T16:28:26.191Z,53.99
2022-08-26T16:29:24.010Z,54.48
2022-08-26T16:30:29.022Z,54.19
2022-08-26T16:31:24.108Z,55.10
2022-08-26T16:32:26.363Z,55.20
2022-08-26T16:33:29.088Z,55.30
2022-08-26T16:34:24.954Z,55.40
2022-08-26T16:35:23.946Z,54.83
2022-08-26T16:36:23.953Z,54.83
2022-08-26T16:37:23.924Z,55.03
2022-08-26T16:38:23.908Z,55.43
2022-08-26T16:39:23.921Z,55.33
2022-08-26T16:40:23.947Z,55.33
2022-08-26T16:41:28.912Z,55.75
2022-08-26T16:42:23.865Z,55.45
2022-08-26T16:43:23.856Z,55.94
2022-08-26T16:44:23.842Z,55.35
2022-08-26T16:45:23.832Z,56.24
2022-08-26T16:46:23.888Z,56.14
2022-08-26T16:47:23.835Z,55.94
2022-08-26T16:48:23.821Z,55.77
2022-08-26T16:49:23.790Z,56.27
2022-08-26T16:50:23.786Z,55.87
2022-08-26T16:51:23.788Z,56.07
2022-08-26T16:52:31.388Z,56.37
2022-08-26T16:53:23.771Z,56.07
2022-08-26T16:54:23.732Z,56.17
2022-08-26T16:55:23.796Z,56.37